sensor_id;sensor_type;location;lat;lon;timestamp;P1;durP1;ratioP1;P2;durP2;ratioP2
36443;SDS011;24692;45.642;13.806;2023-04-06T00:00:56;8.80;;;4.20;;
36443;SDS011;24692;45.642;13.806;2023-04-06T00:03:22;8.90;;;4.20;;
36443;SDS011;24692;45.642;13.806;2023-04-06T00:05:48;10.03;;;4.50;;
36443;SDS011;24692;45.642;13.806;2023-04-06T00:08:14;8.20;;;4.17;;
36443;SDS011;24692;45.642;13.806;2023-04-06T00:10:39;10.23;;;4.47;;
36443;SDS011;24692;45.642;13.806;2023-04-06T00:13:05;7.67;;;4.00;;
36443;SDS011;24692;45.642;13.806;2023-04-06T00:15:32;6.40;;;3.97;;
36443;SDS011;24692;45.642;13.806;2023-04-06T00:17:57;6.73;;;4.20;;
36443;SDS011;24692;45.642;13.806;2023-04-06T00:20:23;7.97;;;4.20;;
36443;SDS011;24692;45.642;13.806;2023-04-06T00:22:49;8.23;;;4.20;;
36443;SDS011;24692;45.642;13.806;2023-04-06T00:25:15;7.30;;;4.10;;
36443;SDS011;24692;45.642;13.806;2023-04-06T00:27:41;8.30;;;4.00;;
36443;SDS011;24692;45.642;13.806;2023-04-06T00:30:07;6.27;;;4.03;;
36443;SDS011;24692;45.642;13.806;2023-04-06T00:32:34;7.73;;;4.30;;
36443;SDS011;24692;45.642;13.806;2023-04-06T00:35:01;8.97;;;4.13;;
36443;SDS011;24692;45.642;13.806;2023-04-06T00:37:31;7.90;;;4.33;;
36443;SDS011;24692;45.642;13.806;2023-04-06T00:39:57;7.63;;;3.90;;
36443;SDS011;24692;45.642;13.806;2023-04-06T00:42:23;7.00;;;4.10;;
36443;SDS011;24692;45.642;13.806;2023-04-06T00:44:56;12.07;;;4.90;;
36443;SDS011;24692;45.642;13.806;2023-04-06T00:47:23;8.60;;;4.60;;
36443;SDS011;24692;45.642;13.806;2023-04-06T00:49:50;7.93;;;4.40;;
36443;SDS011;24692;45.642;13.806;2023-04-06T00:52:17;8.30;;;4.67;;
36443;SDS011;24692;45.642;13.806;2023-04-06T00:54:43;8.10;;;5.00;;
36443;SDS011;24692;45.642;13.806;2023-04-06T00:57:10;8.27;;;4.70;;
36443;SDS011;24692;45.642;13.806;2023-04-06T00:59:36;7.60;;;4.73;;
36443;SDS011;24692;45.642;13.806;2023-04-06T01:02:02;9.23;;;4.63;;
36443;SDS011;24692;45.642;13.806;2023-04-06T01:04:28;9.13;;;5.10;;
36443;SDS011;24692;45.642;13.806;2023-04-06T01:06:55;15.00;;;5.00;;
36443;SDS011;24692;45.642;13.806;2023-04-06T01:09:20;11.13;;;5.37;;
36443;SDS011;24692;45.642;13.806;2023-04-06T01:11:46;8.33;;;4.80;;
36443;SDS011;24692;45.642;13.806;2023-04-06T01:14:12;10.90;;;5.60;;
36443;SDS011;24692;45.642;13.806;2023-04-06T01:16:38;7.57;;;4.77;;
36443;SDS011;24692;45.642;13.806;2023-04-06T01:19:07;9.40;;;5.50;;
36443;SDS011;24692;45.642;13.806;2023-04-06T01:21:35;9.07;;;4.97;;
36443;SDS011;24692;45.642;13.806;2023-04-06T01:24:01;9.27;;;5.23;;
36443;SDS011;24692;45.642;13.806;2023-04-06T01:26:27;9.53;;;5.00;;
36443;SDS011;24692;45.642;13.806;2023-04-06T01:28:54;9.50;;;4.90;;
36443;SDS011;24692;45.642;13.806;2023-04-06T01:31:20;8.20;;;5.17;;
36443;SDS011;24692;45.642;13.806;2023-04-06T01:33:46;6.37;;;4.40;;
36443;SDS011;24692;45.642;13.806;2023-04-06T01:36:12;9.50;;;4.57;;
36443;SDS011;24692;45.642;13.806;2023-04-06T01:38:38;9.03;;;4.50;;
36443;SDS011;24692;45.642;13.806;2023-04-06T01:41:04;8.77;;;4.63;;
36443;SDS011;24692;45.642;13.806;2023-04-06T01:43:29;7.53;;;4.47;;
36443;SDS011;24692;45.642;13.806;2023-04-06T01:45:55;8.13;;;4.63;;
36443;SDS011;24692;45.642;13.806;2023-04-06T01:48:21;7.03;;;4.50;;
36443;SDS011;24692;45.642;13.806;2023-04-06T01:50:47;7.03;;;4.43;;
36443;SDS011;24692;45.642;13.806;2023-04-06T01:53:12;8.17;;;4.97;;
36443;SDS011;24692;45.642;13.806;2023-04-06T01:55:39;8.60;;;4.20;;
36443;SDS011;24692;45.642;13.806;2023-04-06T01:58:04;8.23;;;4.83;;
36443;SDS011;24692;45.642;13.806;2023-04-06T02:00:30;11.37;;;4.97;;
36443;SDS011;24692;45.642;13.806;2023-04-06T02:02:56;7.60;;;4.77;;
36443;SDS011;24692;45.642;13.806;2023-04-06T02:05:21;8.43;;;4.93;;
36443;SDS011;24692;45.642;13.806;2023-04-06T02:07:47;9.93;;;5.13;;
36443;SDS011;24692;45.642;13.806;2023-04-06T02:10:14;6.83;;;4.30;;
36443;SDS011;24692;45.642;13.806;2023-04-06T02:12:39;7.17;;;4.83;;
36443;SDS011;24692;45.642;13.806;2023-04-06T02:15:05;11.27;;;5.10;;
36443;SDS011;24692;45.642;13.806;2023-04-06T02:17:31;8.30;;;4.83;;
36443;SDS011;24692;45.642;13.806;2023-04-06T02:19:57;9.17;;;5.27;;
36443;SDS011;24692;45.642;13.806;2023-04-06T02:22:23;9.80;;;5.20;;
36443;SDS011;24692;45.642;13.806;2023-04-06T02:24:48;8.83;;;4.70;;
36443;SDS011;24692;45.642;13.806;2023-04-06T02:27:14;6.90;;;4.70;;
36443;SDS011;24692;45.642;13.806;2023-04-06T02:29:40;7.27;;;4.47;;
36443;SDS011;24692;45.642;13.806;2023-04-06T02:32:06;8.50;;;4.77;;
36443;SDS011;24692;45.642;13.806;2023-04-06T02:34:31;8.07;;;4.47;;
36443;SDS011;24692;45.642;13.806;2023-04-06T02:36:57;9.87;;;4.83;;
36443;SDS011;24692;45.642;13.806;2023-04-06T02:39:23;9.43;;;4.60;;
36443;SDS011;24692;45.642;13.806;2023-04-06T02:41:48;7.23;;;4.53;;
36443;SDS011;24692;45.642;13.806;2023-04-06T02:44:14;10.50;;;4.70;;
36443;SDS011;24692;45.642;13.806;2023-04-06T02:46:40;6.80;;;4.50;;
36443;SDS011;24692;45.642;13.806;2023-04-06T02:49:06;11.47;;;4.97;;
36443;SDS011;24692;45.642;13.806;2023-04-06T02:51:31;6.97;;;4.17;;
36443;SDS011;24692;45.642;13.806;2023-04-06T02:53:58;7.23;;;4.73;;
36443;SDS011;24692;45.642;13.806;2023-04-06T02:56:24;8.17;;;4.63;;
36443;SDS011;24692;45.642;13.806;2023-04-06T02:58:51;7.03;;;4.50;;
36443;SDS011;24692;45.642;13.806;2023-04-06T03:01:17;7.37;;;4.40;;
36443;SDS011;24692;45.642;13.806;2023-04-06T03:03:43;7.83;;;4.70;;
36443;SDS011;24692;45.642;13.806;2023-04-06T03:06:09;7.20;;;4.20;;
36443;SDS011;24692;45.642;13.806;2023-04-06T03:08:35;6.47;;;4.73;;
36443;SDS011;24692;45.642;13.806;2023-04-06T03:11:00;9.23;;;4.77;;
36443;SDS011;24692;45.642;13.806;2023-04-06T03:13:26;9.60;;;4.67;;
36443;SDS011;24692;45.642;13.806;2023-04-06T03:15:52;8.83;;;4.63;;
36443;SDS011;24692;45.642;13.806;2023-04-06T03:18:20;7.90;;;4.93;;
36443;SDS011;24692;45.642;13.806;2023-04-06T03:20:50;6.93;;;4.30;;
36443;SDS011;24692;45.642;13.806;2023-04-06T03:23:18;7.73;;;4.33;;
36443;SDS011;24692;45.642;13.806;2023-04-06T03:25:46;8.90;;;4.83;;
36443;SDS011;24692;45.642;13.806;2023-04-06T03:28:11;6.07;;;4.43;;
36443;SDS011;24692;45.642;13.806;2023-04-06T03:30:37;7.57;;;4.50;;
36443;SDS011;24692;45.642;13.806;2023-04-06T03:33:03;6.70;;;4.53;;
36443;SDS011;24692;45.642;13.806;2023-04-06T03:35:28;7.10;;;4.57;;
36443;SDS011;24692;45.642;13.806;2023-04-06T03:37:54;8.53;;;5.07;;
36443;SDS011;24692;45.642;13.806;2023-04-06T03:40:20;6.60;;;4.20;;
36443;SDS011;24692;45.642;13.806;2023-04-06T03:42:46;6.70;;;4.37;;
36443;SDS011;24692;45.642;13.806;2023-04-06T03:45:11;6.83;;;4.40;;
36443;SDS011;24692;45.642;13.806;2023-04-06T03:47:40;7.57;;;4.60;;
36443;SDS011;24692;45.642;13.806;2023-04-06T03:50:06;7.30;;;4.40;;
36443;SDS011;24692;45.642;13.806;2023-04-06T03:52:32;8.63;;;4.60;;
36443;SDS011;24692;45.642;13.806;2023-04-06T03:54:57;8.57;;;4.80;;
36443;SDS011;24692;45.642;13.806;2023-04-06T03:57:23;7.10;;;4.50;;
36443;SDS011;24692;45.642;13.806;2023-04-06T03:59:50;7.30;;;4.43;;
36443;SDS011;24692;45.642;13.806;2023-04-06T04:02:20;8.87;;;4.60;;
36443;SDS011;24692;45.642;13.806;2023-04-06T04:04:55;7.93;;;4.30;;
36443;SDS011;24692;45.642;13.806;2023-04-06T04:07:22;7.40;;;4.77;;
36443;SDS011;24692;45.642;13.806;2023-04-06T04:09:50;7.07;;;4.37;;
36443;SDS011;24692;45.642;13.806;2023-04-06T04:12:16;5.73;;;4.60;;
36443;SDS011;24692;45.642;13.806;2023-04-06T04:14:54;9.43;;;4.73;;
36443;SDS011;24692;45.642;13.806;2023-04-06T04:17:22;7.93;;;4.70;;
36443;SDS011;24692;45.642;13.806;2023-04-06T04:19:52;8.07;;;4.53;;
36443;SDS011;24692;45.642;13.806;2023-04-06T04:22:25;7.40;;;4.50;;
36443;SDS011;24692;45.642;13.806;2023-04-06T04:24:54;8.57;;;4.47;;
36443;SDS011;24692;45.642;13.806;2023-04-06T04:27:20;6.70;;;4.30;;
36443;SDS011;24692;45.642;13.806;2023-04-06T04:29:45;8.17;;;4.50;;
36443;SDS011;24692;45.642;13.806;2023-04-06T04:32:11;7.83;;;4.60;;
36443;SDS011;24692;45.642;13.806;2023-04-06T04:34:44;6.23;;;4.27;;
36443;SDS011;24692;45.642;13.806;2023-04-06T04:37:11;6.90;;;4.23;;
36443;SDS011;24692;45.642;13.806;2023-04-06T04:39:39;7.87;;;4.50;;
36443;SDS011;24692;45.642;13.806;2023-04-06T04:42:07;6.37;;;3.93;;
36443;SDS011;24692;45.642;13.806;2023-04-06T04:44:34;6.63;;;4.33;;
36443;SDS011;24692;45.642;13.806;2023-04-06T04:47:05;5.23;;;4.43;;
36443;SDS011;24692;45.642;13.806;2023-04-06T04:49:31;8.10;;;4.60;;
36443;SDS011;24692;45.642;13.806;2023-04-06T04:52:02;7.33;;;4.27;;
36443;SDS011;24692;45.642;13.806;2023-04-06T04:54:28;10.10;;;4.30;;
36443;SDS011;24692;45.642;13.806;2023-04-06T04:56:54;9.23;;;4.40;;
36443;SDS011;24692;45.642;13.806;2023-04-06T04:59:21;5.33;;;4.10;;
36443;SDS011;24692;45.642;13.806;2023-04-06T05:01:47;6.37;;;4.23;;
36443;SDS011;24692;45.642;13.806;2023-04-06T05:04:13;9.43;;;4.50;;
36443;SDS011;24692;45.642;13.806;2023-04-06T05:06:42;7.73;;;4.60;;
36443;SDS011;24692;45.642;13.806;2023-04-06T05:09:10;9.97;;;4.63;;
36443;SDS011;24692;45.642;13.806;2023-04-06T05:11:37;6.90;;;4.40;;
36443;SDS011;24692;45.642;13.806;2023-04-06T05:14:09;9.57;;;4.30;;
36443;SDS011;24692;45.642;13.806;2023-04-06T05:16:36;7.37;;;4.40;;
36443;SDS011;24692;45.642;13.806;2023-04-06T05:19:01;8.60;;;4.53;;
36443;SDS011;24692;45.642;13.806;2023-04-06T05:21:33;7.17;;;4.33;;
36443;SDS011;24692;45.642;13.806;2023-04-06T05:24:00;6.77;;;4.10;;
36443;SDS011;24692;45.642;13.806;2023-04-06T05:26:27;6.90;;;4.23;;
36443;SDS011;24692;45.642;13.806;2023-04-06T05:28:54;6.23;;;4.30;;
36443;SDS011;24692;45.642;13.806;2023-04-06T05:31:20;6.97;;;4.33;;
36443;SDS011;24692;45.642;13.806;2023-04-06T05:33:47;7.47;;;4.33;;
36443;SDS011;24692;45.642;13.806;2023-04-06T05:36:14;8.00;;;4.00;;
36443;SDS011;24692;45.642;13.806;2023-04-06T05:38:42;7.63;;;4.33;;
36443;SDS011;24692;45.642;13.806;2023-04-06T05:41:12;8.50;;;4.30;;
36443;SDS011;24692;45.642;13.806;2023-04-06T05:43:39;6.60;;;4.27;;
36443;SDS011;24692;45.642;13.806;2023-04-06T05:46:10;7.73;;;4.63;;
36443;SDS011;24692;45.642;13.806;2023-04-06T05:48:37;7.97;;;4.97;;
36443;SDS011;24692;45.642;13.806;2023-04-06T05:51:04;8.10;;;4.50;;
36443;SDS011;24692;45.642;13.806;2023-04-06T05:53:33;7.70;;;4.30;;
36443;SDS011;24692;45.642;13.806;2023-04-06T05:56:02;6.57;;;4.50;;
36443;SDS011;24692;45.642;13.806;2023-04-06T05:58:31;6.40;;;4.20;;
36443;SDS011;24692;45.642;13.806;2023-04-06T06:01:00;5.80;;;4.13;;
36443;SDS011;24692;45.642;13.806;2023-04-06T06:03:28;9.77;;;4.77;;
36443;SDS011;24692;45.642;13.806;2023-04-06T06:06:00;6.47;;;4.17;;
36443;SDS011;24692;45.642;13.806;2023-04-06T06:08:28;6.33;;;3.90;;
36443;SDS011;24692;45.642;13.806;2023-04-06T06:10:57;7.07;;;4.10;;
36443;SDS011;24692;45.642;13.806;2023-04-06T06:13:24;10.27;;;4.37;;
36443;SDS011;24692;45.642;13.806;2023-04-06T06:15:50;6.40;;;4.03;;
36443;SDS011;24692;45.642;13.806;2023-04-06T06:18:16;7.50;;;4.53;;
36443;SDS011;24692;45.642;13.806;2023-04-06T06:20:41;8.43;;;3.80;;
36443;SDS011;24692;45.642;13.806;2023-04-06T06:23:07;7.57;;;4.20;;
36443;SDS011;24692;45.642;13.806;2023-04-06T06:25:33;5.47;;;3.93;;
36443;SDS011;24692;45.642;13.806;2023-04-06T06:27:59;6.90;;;4.10;;
36443;SDS011;24692;45.642;13.806;2023-04-06T06:30:25;7.80;;;3.53;;
36443;SDS011;24692;45.642;13.806;2023-04-06T06:32:51;5.50;;;4.00;;
36443;SDS011;24692;45.642;13.806;2023-04-06T06:35:17;7.13;;;3.93;;
36443;SDS011;24692;45.642;13.806;2023-04-06T06:37:43;9.60;;;4.50;;
36443;SDS011;24692;45.642;13.806;2023-04-06T06:40:09;9.43;;;4.57;;
36443;SDS011;24692;45.642;13.806;2023-04-06T06:42:37;8.17;;;4.17;;
36443;SDS011;24692;45.642;13.806;2023-04-06T06:45:04;9.33;;;4.20;;
36443;SDS011;24692;45.642;13.806;2023-04-06T06:47:30;7.60;;;4.23;;
36443;SDS011;24692;45.642;13.806;2023-04-06T06:49:56;6.80;;;3.67;;
36443;SDS011;24692;45.642;13.806;2023-04-06T06:52:22;5.77;;;3.90;;
36443;SDS011;24692;45.642;13.806;2023-04-06T06:54:49;6.17;;;3.57;;
36443;SDS011;24692;45.642;13.806;2023-04-06T06:57:14;5.93;;;3.70;;
36443;SDS011;24692;45.642;13.806;2023-04-06T06:59:40;9.13;;;3.73;;
36443;SDS011;24692;45.642;13.806;2023-04-06T07:02:06;7.13;;;3.47;;
36443;SDS011;24692;45.642;13.806;2023-04-06T07:04:31;7.27;;;4.10;;
36443;SDS011;24692;45.642;13.806;2023-04-06T07:06:57;5.97;;;3.63;;
36443;SDS011;24692;45.642;13.806;2023-04-06T07:09:23;9.03;;;4.17;;
36443;SDS011;24692;45.642;13.806;2023-04-06T07:11:48;5.67;;;3.87;;
36443;SDS011;24692;45.642;13.806;2023-04-06T07:14:15;8.97;;;3.93;;
36443;SDS011;24692;45.642;13.806;2023-04-06T07:16:41;6.53;;;3.90;;
36443;SDS011;24692;45.642;13.806;2023-04-06T07:19:06;5.77;;;3.90;;
36443;SDS011;24692;45.642;13.806;2023-04-06T07:21:33;8.90;;;3.90;;
36443;SDS011;24692;45.642;13.806;2023-04-06T07:23:59;7.40;;;3.77;;
36443;SDS011;24692;45.642;13.806;2023-04-06T07:26:24;6.40;;;4.07;;
36443;SDS011;24692;45.642;13.806;2023-04-06T07:28:50;6.23;;;3.83;;
36443;SDS011;24692;45.642;13.806;2023-04-06T07:31:16;7.30;;;4.33;;
36443;SDS011;24692;45.642;13.806;2023-04-06T07:33:41;9.13;;;4.57;;
36443;SDS011;24692;45.642;13.806;2023-04-06T07:36:07;7.27;;;4.40;;
36443;SDS011;24692;45.642;13.806;2023-04-06T07:38:33;7.57;;;4.20;;
36443;SDS011;24692;45.642;13.806;2023-04-06T07:40:58;7.80;;;4.30;;
36443;SDS011;24692;45.642;13.806;2023-04-06T07:43:24;7.17;;;4.30;;
36443;SDS011;24692;45.642;13.806;2023-04-06T07:45:50;6.70;;;4.10;;
36443;SDS011;24692;45.642;13.806;2023-04-06T07:48:16;6.87;;;4.53;;
36443;SDS011;24692;45.642;13.806;2023-04-06T07:50:42;7.20;;;4.10;;
36443;SDS011;24692;45.642;13.806;2023-04-06T07:53:08;8.23;;;4.10;;
36443;SDS011;24692;45.642;13.806;2023-04-06T07:55:34;6.33;;;3.83;;
36443;SDS011;24692;45.642;13.806;2023-04-06T07:58:00;5.00;;;3.60;;
36443;SDS011;24692;45.642;13.806;2023-04-06T08:00:28;7.55;;;3.75;;
36443;SDS011;24692;45.642;13.806;2023-04-06T08:02:54;5.82;;;3.50;;
36443;SDS011;24692;45.642;13.806;2023-04-06T08:05:20;6.18;;;4.13;;
36443;SDS011;24692;45.642;13.806;2023-04-06T08:07:46;4.38;;;3.60;;
36443;SDS011;24692;45.642;13.806;2023-04-06T08:10:12;5.68;;;3.65;;
36443;SDS011;24692;45.642;13.806;2023-04-06T08:12:37;4.15;;;3.50;;
36443;SDS011;24692;45.642;13.806;2023-04-06T08:15:03;5.03;;;3.88;;
36443;SDS011;24692;45.642;13.806;2023-04-06T08:17:30;6.93;;;3.60;;
36443;SDS011;24692;45.642;13.806;2023-04-06T08:19:56;7.65;;;3.75;;
36443;SDS011;24692;45.642;13.806;2023-04-06T08:22:22;6.40;;;3.78;;
36443;SDS011;24692;45.642;13.806;2023-04-06T08:24:48;6.22;;;3.85;;
36443;SDS011;24692;45.642;13.806;2023-04-06T08:27:14;5.20;;;3.85;;
36443;SDS011;24692;45.642;13.806;2023-04-06T08:29:40;5.93;;;3.50;;
36443;SDS011;24692;45.642;13.806;2023-04-06T08:32:06;5.95;;;3.90;;
36443;SDS011;24692;45.642;13.806;2023-04-06T08:34:32;5.57;;;3.60;;
36443;SDS011;24692;45.642;13.806;2023-04-06T08:36:58;6.35;;;3.63;;
36443;SDS011;24692;45.642;13.806;2023-04-06T08:39:24;4.57;;;3.75;;
36443;SDS011;24692;45.642;13.806;2023-04-06T08:41:52;4.72;;;3.78;;
36443;SDS011;24692;45.642;13.806;2023-04-06T08:44:21;6.63;;;3.88;;
36443;SDS011;24692;45.642;13.806;2023-04-06T08:46:47;6.00;;;3.90;;
36443;SDS011;24692;45.642;13.806;2023-04-06T08:49:13;6.00;;;4.13;;
36443;SDS011;24692;45.642;13.806;2023-04-06T08:51:40;12.07;;;4.43;;
36443;SDS011;24692;45.642;13.806;2023-04-06T08:54:07;6.68;;;3.88;;
36443;SDS011;24692;45.642;13.806;2023-04-06T08:56:33;6.15;;;3.70;;
36443;SDS011;24692;45.642;13.806;2023-04-06T08:59:02;6.00;;;4.17;;
36443;SDS011;24692;45.642;13.806;2023-04-06T09:01:28;6.10;;;4.38;;
36443;SDS011;24692;45.642;13.806;2023-04-06T09:03:56;6.22;;;3.90;;
36443;SDS011;24692;45.642;13.806;2023-04-06T09:06:24;6.43;;;3.50;;
36443;SDS011;24692;45.642;13.806;2023-04-06T09:08:52;5.40;;;3.58;;
36443;SDS011;24692;45.642;13.806;2023-04-06T09:11:19;4.83;;;3.83;;
36443;SDS011;24692;45.642;13.806;2023-04-06T09:13:46;4.65;;;3.88;;
36443;SDS011;24692;45.642;13.806;2023-04-06T09:16:12;6.38;;;3.95;;
36443;SDS011;24692;45.642;13.806;2023-04-06T09:18:38;4.80;;;3.80;;
36443;SDS011;24692;45.642;13.806;2023-04-06T09:21:04;5.57;;;4.03;;
36443;SDS011;24692;45.642;13.806;2023-04-06T09:23:32;5.28;;;3.80;;
36443;SDS011;24692;45.642;13.806;2023-04-06T09:31:21;6.20;;;4.32;;
36443;SDS011;24692;45.642;13.806;2023-04-06T09:33:48;7.03;;;4.20;;
36443;SDS011;24692;45.642;13.806;2023-04-06T09:36:14;5.73;;;4.30;;
36443;SDS011;24692;45.642;13.806;2023-04-06T09:38:52;6.87;;;4.07;;
36443;SDS011;24692;45.642;13.806;2023-04-06T09:44:01;6.30;;;4.23;;
36443;SDS011;24692;45.642;13.806;2023-04-06T09:46:27;7.30;;;4.67;;
36443;SDS011;24692;45.642;13.806;2023-04-06T09:48:55;6.47;;;4.30;;
36443;SDS011;24692;45.642;13.806;2023-04-06T09:51:22;4.90;;;4.33;;
36443;SDS011;24692;45.642;13.806;2023-04-06T09:53:52;4.67;;;4.20;;
36443;SDS011;24692;45.642;13.806;2023-04-06T09:56:20;6.00;;;4.47;;
36443;SDS011;24692;45.642;13.806;2023-04-06T09:58:53;8.37;;;4.87;;
36443;SDS011;24692;45.642;13.806;2023-04-06T10:01:22;7.47;;;4.40;;
36443;SDS011;24692;45.642;13.806;2023-04-06T10:06:35;8.10;;;4.83;;
36443;SDS011;24692;45.642;13.806;2023-04-06T10:09:02;7.50;;;4.60;;
36443;SDS011;24692;45.642;13.806;2023-04-06T10:11:30;4.87;;;4.13;;
36443;SDS011;24692;45.642;13.806;2023-04-06T10:13:56;6.73;;;4.47;;
36443;SDS011;24692;45.642;13.806;2023-04-06T10:16:22;6.37;;;4.67;;
36443;SDS011;24692;45.642;13.806;2023-04-06T10:18:52;6.20;;;4.50;;
36443;SDS011;24692;45.642;13.806;2023-04-06T10:21:24;5.83;;;4.70;;
36443;SDS011;24692;45.642;13.806;2023-04-06T10:23:52;8.93;;;5.17;;
36443;SDS011;24692;45.642;13.806;2023-04-06T10:26:23;6.93;;;4.83;;
36443;SDS011;24692;45.642;13.806;2023-04-06T10:28:50;7.20;;;5.33;;
36443;SDS011;24692;45.642;13.806;2023-04-06T10:31:27;7.07;;;5.00;;
36443;SDS011;24692;45.642;13.806;2023-04-06T10:33:54;6.10;;;4.90;;
36443;SDS011;24692;45.642;13.806;2023-04-06T10:36:24;6.87;;;5.17;;
36443;SDS011;24692;45.642;13.806;2023-04-06T10:39:01;8.50;;;5.67;;
36443;SDS011;24692;45.642;13.806;2023-04-06T10:41:35;7.83;;;5.67;;
36443;SDS011;24692;45.642;13.806;2023-04-06T10:44:08;6.53;;;5.20;;
36443;SDS011;24692;45.642;13.806;2023-04-06T10:46:42;7.83;;;5.30;;
36443;SDS011;24692;45.642;13.806;2023-04-06T10:49:27;7.57;;;5.30;;
36443;SDS011;24692;45.642;13.806;2023-04-06T10:51:53;7.03;;;5.53;;
36443;SDS011;24692;45.642;13.806;2023-04-06T10:54:23;9.43;;;5.37;;
36443;SDS011;24692;45.642;13.806;2023-04-06T10:56:50;6.77;;;5.20;;
36443;SDS011;24692;45.642;13.806;2023-04-06T10:59:19;7.20;;;5.60;;
36443;SDS011;24692;45.642;13.806;2023-04-06T11:01:46;8.40;;;5.80;;
36443;SDS011;24692;45.642;13.806;2023-04-06T11:04:15;8.33;;;5.47;;
36443;SDS011;24692;45.642;13.806;2023-04-06T11:06:45;7.10;;;5.33;;
36443;SDS011;24692;45.642;13.806;2023-04-06T11:09:22;10.40;;;6.27;;
36443;SDS011;24692;45.642;13.806;2023-04-06T11:11:50;7.70;;;6.37;;
36443;SDS011;24692;45.642;13.806;2023-04-06T11:14:15;8.27;;;6.23;;
36443;SDS011;24692;45.642;13.806;2023-04-06T11:16:41;9.57;;;6.33;;
36443;SDS011;24692;45.642;13.806;2023-04-06T11:19:07;8.83;;;6.70;;
36443;SDS011;24692;45.642;13.806;2023-04-06T11:26:31;10.17;;;7.23;;
36443;SDS011;24692;45.642;13.806;2023-04-06T11:29:01;9.97;;;7.00;;
36443;SDS011;24692;45.642;13.806;2023-04-06T11:31:27;10.77;;;7.40;;
36443;SDS011;24692;45.642;13.806;2023-04-06T11:33:56;9.13;;;7.10;;
36443;SDS011;24692;45.642;13.806;2023-04-06T11:36:22;10.17;;;7.53;;
36443;SDS011;24692;45.642;13.806;2023-04-06T11:38:48;10.17;;;7.20;;
36443;SDS011;24692;45.642;13.806;2023-04-06T11:41:14;10.73;;;7.07;;
36443;SDS011;24692;45.642;13.806;2023-04-06T11:43:45;8.83;;;7.07;;
36443;SDS011;24692;45.642;13.806;2023-04-06T11:46:16;10.33;;;7.07;;
36443;SDS011;24692;45.642;13.806;2023-04-06T11:48:44;11.93;;;8.00;;
36443;SDS011;24692;45.642;13.806;2023-04-06T11:51:10;10.43;;;8.40;;
36443;SDS011;24692;45.642;13.806;2023-04-06T11:53:43;11.27;;;7.60;;
36443;SDS011;24692;45.642;13.806;2023-04-06T11:56:10;10.70;;;8.10;;
36443;SDS011;24692;45.642;13.806;2023-04-06T11:58:36;10.43;;;8.20;;
36443;SDS011;24692;45.642;13.806;2023-04-06T12:01:04;9.33;;;7.70;;
36443;SDS011;24692;45.642;13.806;2023-04-06T12:03:30;11.27;;;8.27;;
36443;SDS011;24692;45.642;13.806;2023-04-06T12:05:56;12.83;;;8.27;;
36443;SDS011;24692;45.642;13.806;2023-04-06T12:08:21;11.27;;;8.40;;
36443;SDS011;24692;45.642;13.806;2023-04-06T12:10:50;12.67;;;8.70;;
36443;SDS011;24692;45.642;13.806;2023-04-06T12:13:16;11.43;;;8.53;;
36443;SDS011;24692;45.642;13.806;2023-04-06T12:15:41;12.03;;;7.87;;
36443;SDS011;24692;45.642;13.806;2023-04-06T12:18:07;9.70;;;7.97;;
36443;SDS011;24692;45.642;13.806;2023-04-06T12:20:33;11.10;;;7.87;;
36443;SDS011;24692;45.642;13.806;2023-04-06T12:22:59;11.03;;;8.03;;
36443;SDS011;24692;45.642;13.806;2023-04-06T12:25:25;11.70;;;8.60;;
36443;SDS011;24692;45.642;13.806;2023-04-06T12:27:50;11.00;;;8.60;;
36443;SDS011;24692;45.642;13.806;2023-04-06T12:30:16;14.03;;;8.17;;
36443;SDS011;24692;45.642;13.806;2023-04-06T12:32:42;10.90;;;8.33;;
36443;SDS011;24692;45.642;13.806;2023-04-06T12:35:08;12.57;;;8.63;;
36443;SDS011;24692;45.642;13.806;2023-04-06T12:37:34;10.87;;;8.73;;
36443;SDS011;24692;45.642;13.806;2023-04-06T12:39:59;13.17;;;8.80;;
36443;SDS011;24692;45.642;13.806;2023-04-06T12:42:25;11.13;;;8.50;;
36443;SDS011;24692;45.642;13.806;2023-04-06T12:44:51;11.13;;;8.80;;
36443;SDS011;24692;45.642;13.806;2023-04-06T12:47:17;11.90;;;8.30;;
36443;SDS011;24692;45.642;13.806;2023-04-06T12:49:43;11.50;;;8.60;;
36443;SDS011;24692;45.642;13.806;2023-04-06T12:52:09;11.17;;;8.80;;
36443;SDS011;24692;45.642;13.806;2023-04-06T12:54:35;10.18;;;8.07;;
36443;SDS011;24692;45.642;13.806;2023-04-06T12:57:01;13.87;;;9.20;;
36443;SDS011;24692;45.642;13.806;2023-04-06T12:59:27;11.07;;;8.37;;
36443;SDS011;24692;45.642;13.806;2023-04-06T13:01:56;13.17;;;8.70;;
36443;SDS011;24692;45.642;13.806;2023-04-06T13:04:21;11.90;;;8.30;;
36443;SDS011;24692;45.642;13.806;2023-04-06T13:06:48;12.10;;;8.30;;
36443;SDS011;24692;45.642;13.806;2023-04-06T13:09:14;12.47;;;8.90;;
36443;SDS011;24692;45.642;13.806;2023-04-06T13:11:39;10.30;;;8.00;;
36443;SDS011;24692;45.642;13.806;2023-04-06T13:14:06;10.60;;;8.60;;
36443;SDS011;24692;45.642;13.806;2023-04-06T13:16:32;13.37;;;8.70;;
36443;SDS011;24692;45.642;13.806;2023-04-06T13:18:57;12.63;;;9.00;;
36443;SDS011;24692;45.642;13.806;2023-04-06T13:21:23;12.37;;;8.87;;
36443;SDS011;24692;45.642;13.806;2023-04-06T13:23:50;14.27;;;8.67;;
36443;SDS011;24692;45.642;13.806;2023-04-06T13:26:16;12.03;;;8.77;;
36443;SDS011;24692;45.642;13.806;2023-04-06T13:28:42;13.07;;;8.73;;
36443;SDS011;24692;45.642;13.806;2023-04-06T13:31:08;12.67;;;8.53;;
36443;SDS011;24692;45.642;13.806;2023-04-06T13:33:35;11.90;;;8.17;;
36443;SDS011;24692;45.642;13.806;2023-04-06T13:36:01;14.03;;;7.50;;
36443;SDS011;24692;45.642;13.806;2023-04-06T13:38:27;11.03;;;7.93;;
36443;SDS011;24692;45.642;13.806;2023-04-06T13:40:53;12.80;;;8.33;;
36443;SDS011;24692;45.642;13.806;2023-04-06T13:43:18;10.77;;;7.97;;
36443;SDS011;24692;45.642;13.806;2023-04-06T13:45:49;12.23;;;8.30;;
36443;SDS011;24692;45.642;13.806;2023-04-06T13:48:16;14.07;;;8.73;;
36443;SDS011;24692;45.642;13.806;2023-04-06T13:50:42;14.00;;;8.33;;
36443;SDS011;24692;45.642;13.806;2023-04-06T13:53:08;11.10;;;7.90;;
36443;SDS011;24692;45.642;13.806;2023-04-06T13:55:33;10.97;;;8.27;;
36443;SDS011;24692;45.642;13.806;2023-04-06T13:57:59;11.80;;;8.40;;
36443;SDS011;24692;45.642;13.806;2023-04-06T14:00:25;13.13;;;8.20;;
36443;SDS011;24692;45.642;13.806;2023-04-06T14:02:50;11.30;;;7.80;;
36443;SDS011;24692;45.642;13.806;2023-04-06T14:05:18;12.40;;;8.03;;
36443;SDS011;24692;45.642;13.806;2023-04-06T14:07:43;9.80;;;7.13;;
36443;SDS011;24692;45.642;13.806;2023-04-06T14:10:09;12.77;;;7.70;;
36443;SDS011;24692;45.642;13.806;2023-04-06T14:12:39;12.93;;;7.67;;
36443;SDS011;24692;45.642;13.806;2023-04-06T14:15:06;12.00;;;7.67;;
36443;SDS011;24692;45.642;13.806;2023-04-06T14:17:33;10.50;;;7.03;;
36443;SDS011;24692;45.642;13.806;2023-04-06T14:19:58;12.33;;;7.57;;
36443;SDS011;24692;45.642;13.806;2023-04-06T14:22:24;11.87;;;7.33;;
36443;SDS011;24692;45.642;13.806;2023-04-06T14:24:51;9.87;;;6.47;;
36443;SDS011;24692;45.642;13.806;2023-04-06T14:27:16;10.13;;;7.37;;
36443;SDS011;24692;45.642;13.806;2023-04-06T14:29:42;12.07;;;7.70;;
36443;SDS011;24692;45.642;13.806;2023-04-06T14:32:07;11.87;;;7.13;;
36443;SDS011;24692;45.642;13.806;2023-04-06T14:34:36;9.80;;;7.30;;
36443;SDS011;24692;45.642;13.806;2023-04-06T14:37:02;10.63;;;7.30;;
36443;SDS011;24692;45.642;13.806;2023-04-06T14:39:28;10.30;;;7.13;;
36443;SDS011;24692;45.642;13.806;2023-04-06T14:41:53;10.20;;;7.03;;
36443;SDS011;24692;45.642;13.806;2023-04-06T14:44:20;10.90;;;7.40;;